sensor_id;sensor_type;location;lat;lon;timestamp;P1;durP1;ratioP1;P2;durP2;ratioP2
26562;SDS011;14217;50.986;5.826;2022-09-03T00:01:43;1.35;;;0.65;;
26562;SDS011;14217;50.986;5.826;2022-09-03T00:06:54;1.27;;;0.45;;
26562;SDS011;14217;50.986;5.826;2022-09-03T00:17:33;0.50;;;0.30;;
26562;SDS011;14217;50.986;5.826;2022-09-03T00:22:50;1.30;;;0.60;;
26562;SDS011;14217;50.986;5.826;2022-09-03T00:27:56;2.72;;;0.60;;
26562;SDS011;14217;50.986;5.826;2022-09-03T00:33:10;3.47;;;0.68;;
26562;SDS011;14217;50.986;5.826;2022-09-03T00:38:19;1.70;;;0.50;;
26562;SDS011;14217;50.986;5.826;2022-09-03T01:05:41;3.05;;;1.15;;
26562;SDS011;14217;50.986;5.826;2022-09-03T01:10:51;0.73;;;0.50;;
26562;SDS011;14217;50.986;5.826;2022-09-03T01:26:59;2.13;;;0.38;;
26562;SDS011;14217;50.986;5.826;2022-09-03T01:59:02;0.32;;;0.30;;
26562;SDS011;14217;50.986;5.826;2022-09-03T02:04:21;0.82;;;0.40;;
26562;SDS011;14217;50.986;5.826;2022-09-03T02:09:26;0.60;;;0.32;;
26562;SDS011;14217;50.986;5.826;2022-09-03T02:14:33;0.65;;;0.30;;
26562;SDS011;14217;50.986;5.826;2022-09-03T02:19:36;0.65;;;0.38;;
26562;SDS011;14217;50.986;5.826;2022-09-03T02:24:39;1.33;;;0.47;;
26562;SDS011;14217;50.986;5.826;2022-09-03T02:29:41;0.57;;;0.38;;
26562;SDS011;14217;50.986;5.826;2022-09-03T02:34:43;0.32;;;0.30;;
26562;SDS011;14217;50.986;5.826;2022-09-03T02:39:45;1.40;;;0.77;;
26562;SDS011;14217;50.986;5.826;2022-09-03T02:44:49;0.70;;;0.50;;
26562;SDS011;14217;50.986;5.826;2022-09-03T02:49:56;0.35;;;0.22;;
26562;SDS011;14217;50.986;5.826;2022-09-03T02:54:58;0.57;;;0.40;;
26562;SDS011;14217;50.986;5.826;2022-09-03T03:00:00;0.90;;;0.50;;
26562;SDS011;14217;50.986;5.826;2022-09-03T03:05:03;1.58;;;0.40;;
26562;SDS011;14217;50.986;5.826;2022-09-03T03:10:05;1.08;;;0.40;;
26562;SDS011;14217;50.986;5.826;2022-09-03T03:15:09;0.77;;;0.43;;
26562;SDS011;14217;50.986;5.826;2022-09-03T03:20:11;0.30;;;0.30;;
26562;SDS011;14217;50.986;5.826;2022-09-03T03:25:13;0.40;;;0.35;;
26562;SDS011;14217;50.986;5.826;2022-09-03T03:30:15;0.50;;;0.50;;
26562;SDS011;14217;50.986;5.826;2022-09-03T03:35:17;0.80;;;0.35;;
26562;SDS011;14217;50.986;5.826;2022-09-03T03:40:20;1.63;;;0.40;;
26562;SDS011;14217;50.986;5.826;2022-09-03T03:45:22;0.70;;;0.47;;
26562;SDS011;14217;50.986;5.826;2022-09-03T03:50:25;0.68;;;0.30;;
26562;SDS011;14217;50.986;5.826;2022-09-03T03:55:27;0.57;;;0.30;;
26562;SDS011;14217;50.986;5.826;2022-09-03T04:00:32;0.85;;;0.47;;
26562;SDS011;14217;50.986;5.826;2022-09-03T04:05:38;1.42;;;0.32;;
26562;SDS011;14217;50.986;5.826;2022-09-03T04:10:48;3.40;;;0.60;;
26562;SDS011;14217;50.986;5.826;2022-09-03T04:15:50;2.10;;;0.50;;
26562;SDS011;14217;50.986;5.826;2022-09-03T04:20:57;0.57;;;0.30;;
26562;SDS011;14217;50.986;5.826;2022-09-03T04:26:00;0.30;;;0.30;;
26562;SDS011;14217;50.986;5.826;2022-09-03T04:31:02;0.50;;;0.35;;
26562;SDS011;14217;50.986;5.826;2022-09-03T04:36:08;0.52;;;0.40;;
26562;SDS011;14217;50.986;5.826;2022-09-03T04:41:22;0.43;;;0.43;;
26562;SDS011;14217;50.986;5.826;2022-09-03T04:46:28;1.58;;;0.47;;
26562;SDS011;14217;50.986;5.826;2022-09-03T04:51:34;0.93;;;0.30;;
26562;SDS011;14217;50.986;5.826;2022-09-03T04:56:39;2.75;;;0.50;;
26562;SDS011;14217;50.986;5.826;2022-09-03T05:01:41;0.40;;;0.25;;
26562;SDS011;14217;50.986;5.826;2022-09-03T05:06:44;1.15;;;0.40;;
26562;SDS011;14217;50.986;5.826;2022-09-03T05:11:46;0.82;;;0.50;;
26562;SDS011;14217;50.986;5.826;2022-09-03T05:16:48;0.40;;;0.40;;
26562;SDS011;14217;50.986;5.826;2022-09-03T05:21:53;0.80;;;0.30;;
26562;SDS011;14217;50.986;5.826;2022-09-03T05:26:55;1.02;;;0.40;;
26562;SDS011;14217;50.986;5.826;2022-09-03T05:31:57;0.47;;;0.30;;
26562;SDS011;14217;50.986;5.826;2022-09-03T05:37:01;1.33;;;0.52;;
26562;SDS011;14217;50.986;5.826;2022-09-03T05:42:02;3.90;;;0.50;;
26562;SDS011;14217;50.986;5.826;2022-09-03T05:47:06;2.25;;;0.40;;
26562;SDS011;14217;50.986;5.826;2022-09-03T05:52:08;0.40;;;0.40;;
26562;SDS011;14217;50.986;5.826;2022-09-03T05:57:10;0.98;;;0.35;;
26562;SDS011;14217;50.986;5.826;2022-09-03T06:02:12;0.73;;;0.30;;
26562;SDS011;14217;50.986;5.826;2022-09-03T06:07:15;0.57;;;0.30;;
26562;SDS011;14217;50.986;5.826;2022-09-03T06:12:17;0.43;;;0.40;;
26562;SDS011;14217;50.986;5.826;2022-09-03T06:17:19;0.88;;;0.55;;
26562;SDS011;14217;50.986;5.826;2022-09-03T06:22:21;0.70;;;0.40;;
26562;SDS011;14217;50.986;5.826;2022-09-03T06:27:27;0.98;;;0.70;;
26562;SDS011;14217;50.986;5.826;2022-09-03T06:32:29;1.05;;;0.63;;
26562;SDS011;14217;50.986;5.826;2022-09-03T06:37:31;2.47;;;0.93;;
26562;SDS011;14217;50.986;5.826;2022-09-03T06:42:33;2.17;;;0.73;;
26562;SDS011;14217;50.986;5.826;2022-09-03T06:47:35;1.88;;;0.93;;
26562;SDS011;14217;50.986;5.826;2022-09-03T06:52:37;1.00;;;0.73;;
26562;SDS011;14217;50.986;5.826;2022-09-03T06:57:39;9.07;;;1.15;;
26562;SDS011;14217;50.986;5.826;2022-09-03T07:02:41;3.25;;;1.17;;
26562;SDS011;14217;50.986;5.826;2022-09-03T07:07:45;7.18;;;1.00;;
26562;SDS011;14217;50.986;5.826;2022-09-03T07:12:47;3.75;;;1.58;;
26562;SDS011;14217;50.986;5.826;2022-09-03T07:17:49;1.73;;;0.85;;
26562;SDS011;14217;50.986;5.826;2022-09-03T07:22:54;11.55;;;1.13;;
26562;SDS011;14217;50.986;5.826;2022-09-03T07:27:57;5.55;;;1.00;;
26562;SDS011;14217;50.986;5.826;2022-09-03T07:32:59;2.70;;;1.13;;
26562;SDS011;14217;50.986;5.826;2022-09-03T07:38:04;1.05;;;0.60;;
26562;SDS011;14217;50.986;5.826;2022-09-03T07:43:06;1.75;;;0.63;;
26562;SDS011;14217;50.986;5.826;2022-09-03T07:48:09;10.10;;;1.13;;
26562;SDS011;14217;50.986;5.826;2022-09-03T07:58:48;4.32;;;1.08;;
26562;SDS011;14217;50.986;5.826;2022-09-03T08:03:51;2.75;;;1.10;;
26562;SDS011;14217;50.986;5.826;2022-09-03T08:08:54;1.60;;;0.88;;
26562;SDS011;14217;50.986;5.826;2022-09-03T08:14:06;0.80;;;0.68;;
26562;SDS011;14217;50.986;5.826;2022-09-03T08:19:10;1.35;;;0.65;;
26562;SDS011;14217;50.986;5.826;2022-09-03T08:24:14;0.93;;;0.70;;
26562;SDS011;14217;50.986;5.826;2022-09-03T08:29:17;0.98;;;0.60;;
26562;SDS011;14217;50.986;5.826;2022-09-03T08:34:20;1.20;;;0.60;;
26562;SDS011;14217;50.986;5.826;2022-09-03T08:39:22;2.08;;;0.68;;
26562;SDS011;14217;50.986;5.826;2022-09-03T08:44:41;1.60;;;0.70;;
26562;SDS011;14217;50.986;5.826;2022-09-03T09:00:15;2.47;;;0.77;;
26562;SDS011;14217;50.986;5.826;2022-09-03T09:05:21;6.95;;;0.82;;
26562;SDS011;14217;50.986;5.826;2022-09-03T09:10:36;3.42;;;0.80;;
26562;SDS011;14217;50.986;5.826;2022-09-03T09:16:03;0.90;;;0.65;;
26562;SDS011;14217;50.986;5.826;2022-09-03T09:26:59;2.42;;;1.30;;
26562;SDS011;14217;50.986;5.826;2022-09-03T09:32:06;3.50;;;1.00;;
26562;SDS011;14217;50.986;5.826;2022-09-03T09:37:11;1.63;;;0.90;;
26562;SDS011;14217;50.986;5.826;2022-09-03T09:42:14;2.33;;;1.00;;
26562;SDS011;14217;50.986;5.826;2022-09-03T09:47:21;3.15;;;1.05;;
26562;SDS011;14217;50.986;5.826;2022-09-03T09:52:27;6.30;;;1.15;;
26562;SDS011;14217;50.986;5.826;2022-09-03T09:57:30;4.45;;;1.13;;
26562;SDS011;14217;50.986;5.826;2022-09-03T10:02:35;1.38;;;0.88;;
26562;SDS011;14217;50.986;5.826;2022-09-03T10:07:38;4.65;;;1.27;;
26562;SDS011;14217;50.986;5.826;2022-09-03T10:13:00;2.67;;;1.13;;
26562;SDS011;14217;50.986;5.826;2022-09-03T10:29:17;2.67;;;0.98;;
26562;SDS011;14217;50.986;5.826;2022-09-03T10:34:28;1.42;;;0.88;;
26562;SDS011;14217;50.986;5.826;2022-09-03T10:45:09;0.60;;;0.60;;
26562;SDS011;14217;50.986;5.826;2022-09-03T10:55:28;1.58;;;0.90;;
26562;SDS011;14217;50.986;5.826;2022-09-03T11:00:33;1.30;;;1.00;;
26562;SDS011;14217;50.986;5.826;2022-09-03T11:10:53;1.60;;;0.75;;
26562;SDS011;14217;50.986;5.826;2022-09-03T11:16:02;6.05;;;1.35;;
26562;SDS011;14217;50.986;5.826;2022-09-03T11:21:12;2.53;;;1.08;;
26562;SDS011;14217;50.986;5.826;2022-09-03T11:26:17;2.47;;;1.27;;
26562;SDS011;14217;50.986;5.826;2022-09-03T11:31:32;1.60;;;0.93;;
26562;SDS011;14217;50.986;5.826;2022-09-03T11:37:32;1.27;;;1.02;;
26562;SDS011;14217;50.986;5.826;2022-09-03T11:42:37;2.38;;;1.42;;
26562;SDS011;14217;50.986;5.826;2022-09-03T11:47:42;1.42;;;1.10;;
26562;SDS011;14217;50.986;5.826;2022-09-03T11:52:45;1.20;;;1.10;;
26562;SDS011;14217;50.986;5.826;2022-09-03T11:57:48;2.13;;;1.10;;
26562;SDS011;14217;50.986;5.826;2022-09-03T12:02:53;2.08;;;1.50;;
26562;SDS011;14217;50.986;5.826;2022-09-03T12:18:30;2.53;;;1.42;;
26562;SDS011;14217;50.986;5.826;2022-09-03T12:23:42;3.42;;;1.23;;
26562;SDS011;14217;50.986;5.826;2022-09-03T12:28:54;3.67;;;1.08;;
26562;SDS011;14217;50.986;5.826;2022-09-03T12:34:04;1.10;;;1.00;;
26562;SDS011;14217;50.986;5.826;2022-09-03T12:39:14;1.25;;;1.15;;
26562;SDS011;14217;50.986;5.826;2022-09-03T12:44:40;3.42;;;0.80;;
26562;SDS011;14217;50.986;5.826;2022-09-03T12:49:49;2.05;;;1.50;;
26562;SDS011;14217;50.986;5.826;2022-09-03T12:54:55;1.67;;;1.10;;
26562;SDS011;14217;50.986;5.826;2022-09-03T13:00:20;5.93;;;1.13;;
26562;SDS011;14217;50.986;5.826;2022-09-03T13:05:32;1.00;;;0.90;;
26562;SDS011;14217;50.986;5.826;2022-09-03T13:10:38;5.28;;;0.95;;
26562;SDS011;14217;50.986;5.826;2022-09-03T13:16:10;1.13;;;1.10;;
26562;SDS011;14217;50.986;5.826;2022-09-03T13:32:13;1.80;;;1.10;;
26562;SDS011;14217;50.986;5.826;2022-09-03T13:37:34;2.72;;;1.15;;
26562;SDS011;14217;50.986;5.826;2022-09-03T13:42:39;2.92;;;1.45;;
26562;SDS011;14217;50.986;5.826;2022-09-03T13:58:43;1.70;;;1.08;;
26562;SDS011;14217;50.986;5.826;2022-09-03T14:14:50;1.33;;;1.00;;
26562;SDS011;14217;50.986;5.826;2022-09-03T14:19:59;1.02;;;0.90;;
26562;SDS011;14217;50.986;5.826;2022-09-03T14:25:12;1.25;;;0.70;;
26562;SDS011;14217;50.986;5.826;2022-09-03T14:30:41;1.90;;;1.30;;
26562;SDS011;14217;50.986;5.826;2022-09-03T14:46:45;2.38;;;1.10;;
26562;SDS011;14217;50.986;5.826;2022-09-03T14:57:44;2.00;;;1.13;;
26562;SDS011;14217;50.986;5.826;2022-09-03T15:13:53;1.92;;;0.88;;
26562;SDS011;14217;50.986;5.826;2022-09-03T15:19:15;1.05;;;0.93;;
26562;SDS011;14217;50.986;5.826;2022-09-03T15:30:08;1.13;;;1.02;;
26562;SDS011;14217;50.986;5.826;2022-09-03T15:35:24;1.40;;;1.10;;
26562;SDS011;14217;50.986;5.826;2022-09-03T15:40:46;2.97;;;1.20;;
26562;SDS011;14217;50.986;5.826;2022-09-03T15:45:52;1.70;;;0.82;;
26562;SDS011;14217;50.986;5.826;2022-09-03T15:51:09;0.95;;;0.82;;
26562;SDS011;14217;50.986;5.826;2022-09-03T16:02:23;0.98;;;0.98;;
26562;SDS011;14217;50.986;5.826;2022-09-03T16:07:40;2.05;;;1.00;;
26562;SDS011;14217;50.986;5.826;2022-09-03T16:18:31;1.17;;;1.00;;
26562;SDS011;14217;50.986;5.826;2022-09-03T16:23:43;1.15;;;1.02;;
26562;SDS011;14217;50.986;5.826;2022-09-03T16:29:12;1.15;;;1.00;;
26562;SDS011;14217;50.986;5.826;2022-09-03T17:00:41;2.08;;;0.85;;
26562;SDS011;14217;50.986;5.826;2022-09-03T17:06:07;1.73;;;0.95;;
26562;SDS011;14217;50.986;5.826;2022-09-03T17:21:35;1.58;;;1.10;;
26562;SDS011;14217;50.986;5.826;2022-09-03T17:37:46;1.23;;;0.93;;
26562;SDS011;14217;50.986;5.826;2022-09-03T17:53:22;1.50;;;1.10;;
26562;SDS011;14217;50.986;5.826;2022-09-03T17:58:36;1.30;;;1.20;;
26562;SDS011;14217;50.986;5.826;2022-09-03T18:03:51;1.65;;;1.13;;
26562;SDS011;14217;50.986;5.826;2022-09-03T18:09:06;1.20;;;1.10;;
26562;SDS011;14217;50.986;5.826;2022-09-03T18:19:51;1.38;;;1.10;;
26562;SDS011;14217;50.986;5.826;2022-09-03T18:25:18;1.30;;;1.20;;
26562;SDS011;14217;50.986;5.826;2022-09-03T18:30:44;2.05;;;0.90;;
26562;SDS011;14217;50.986;5.826;2022-09-03T18:36:04;1.77;;;1.48;;
26562;SDS011;14217;50.986;5.826;2022-09-03T18:47:02;1.40;;;1.30;;
26562;SDS011;14217;50.986;5.826;2022-09-03T18:53:11;1.10;;;0.98;;
26562;SDS011;14217;50.986;5.826;2022-09-03T18:59:00;1.83;;;1.10;;
26562;SDS011;14217;50.986;5.826;2022-09-03T20:50:41;1.80;;;1.30;;
26562;SDS011;14217;50.986;5.826;2022-09-03T20:55:49;1.98;;;1.55;;
26562;SDS011;14217;50.986;5.826;2022-09-03T21:01:00;1.80;;;1.38;;
26562;SDS011;14217;50.986;5.826;2022-09-03T21:06:08;1.20;;;1.10;;
26562;SDS011;14217;50.986;5.826;2022-09-03T21:22:18;1.95;;;1.42;;
26562;SDS011;14217;50.986;5.826;2022-09-03T21:27:45;3.53;;;0.98;;
26562;SDS011;14217;50.986;5.826;2022-09-03T21:33:03;1.38;;;1.17;;
26562;SDS011;14217;50.986;5.826;2022-09-03T21:38:12;2.35;;;1.10;;
26562;SDS011;14217;50.986;5.826;2022-09-03T21:43:19;12.65;;;1.75;;
26562;SDS011;14217;50.986;5.826;2022-09-03T21:48:29;1.27;;;0.98;;
26562;SDS011;14217;50.986;5.826;2022-09-03T22:04:32;1.33;;;1.23;;
26562;SDS011;14217;50.986;5.826;2022-09-03T22:09:38;2.70;;;1.50;;
26562;SDS011;14217;50.986;5.826;2022-09-03T22:14:47;1.95;;;1.20;;
26562;SDS011;14217;50.986;5.826;2022-09-03T22:19:52;1.10;;;1.00;;
26562;SDS011;14217;50.986;5.826;2022-09-03T22:24:57;1.65;;;1.00;;
26562;SDS011;14217;50.986;5.826;2022-09-03T22:30:06;3.60;;;1.08;;
26562;SDS011;14217;50.986;5.826;2022-09-03T22:46:37;1.15;;;0.90;;
26562;SDS011;14217;50.986;5.826;2022-09-03T22:56:58;1.55;;;0.80;;
26562;SDS011;14217;50.986;5.826;2022-09-03T23:12:32;0.90;;;0.80;;
26562;SDS011;14217;50.986;5.826;2022-09-03T23:17:41;0.90;;;0.70;;
26562;SDS011;14217;50.986;5.826;2022-09-03T23:22:48;1.00;;;0.70;;
26562;SDS011;14217;50.986;5.826;2022-09-03T23:33:24;1.30;;;0.70;;
